Time;durP1;ratioP1;P1;durP2;ratioP2;P2;SDS_P1;SDS_P2;PMS_P1;PMS_P2;Temp;Humidity;BMP_temperature;BMP_pressure;BME280_temperature;BME280_humidity;BME280_pressure;Samples;Min_cycle;Max_cycle;Signal;HPM_P1;HPM_P2
2021/12/09 00:00:43;;;;;;;;;7.00;3.00;;;;;5.40;71.79;100027.66;5000537;28;45630;-73
2021/12/09 00:03:09;;;;;;;;;3.00;1.75;;;;;5.36;71.90;100025.16;5003229;28;45473;-72
2021/12/09 00:05:35;;;;;;;;;3.75;3.00;;;;;5.31;72.00;100021.78;4998909;28;45395;-72
2021/12/09 00:08:02;;;;;;;;;8.50;2.25;;;;;5.24;71.86;100005.31;4995214;28;46116;-72
2021/12/09 00:10:28;;;;;;;;;2.00;1.50;;;;;5.37;71.55;100038.22;5000553;28;47928;-73
2021/12/09 00:12:53;;;;;;;;;1.00;1.00;;;;;5.16;71.90;99996.78;5006357;28;45582;-73
2021/12/09 00:15:19;;;;;;;;;4.25;1.75;;;;;5.38;71.28;100034.72;5007435;28;45634;-73
2021/12/09 00:17:44;;;;;;;;;2.25;2.25;;;;;5.40;71.27;100029.41;5006789;28;48328;-73
2021/12/09 00:20:10;;;;;;;;;6.50;2.25;;;;;5.21;71.67;99994.91;5013789;28;45377;-73
2021/12/09 00:22:36;;;;;;;;;8.50;2.75;;;;;5.38;72.17;100021.59;5006540;28;45841;-73
2021/12/09 00:25:01;;;;;;;;;9.25;2.75;;;;;5.45;72.93;100025.78;5004014;28;45541;-73
2021/12/09 00:27:26;;;;;;;;;3.25;3.25;;;;;5.37;72.54;100014.59;4995646;28;50073;-73
2021/12/09 00:29:52;;;;;;;;;6.50;2.00;;;;;5.44;71.87;100015.31;5006666;28;45373;-73
2021/12/09 00:32:18;;;;;;;;;4.75;2.00;;;;;5.36;72.44;99996.28;4998041;28;45471;-73
2021/12/09 00:34:47;;;;;;;;;4.25;2.00;;;;;5.43;71.79;100001.34;4999816;28;45547;-73
2021/12/09 00:37:29;;;;;;;;;6.00;3.00;;;;;5.61;72.75;100018.38;5006050;28;46066;-73
2021/12/09 00:39:54;;;;;;;;;8.25;1.75;;;;;5.65;72.37;100030.53;5005501;28;45316;-73
2021/12/09 00:42:22;;;;;;;;;4.25;1.50;;;;;5.40;72.06;99995.31;4995479;28;45412;-73
2021/12/09 00:44:48;;;;;;;;;2.75;2.00;;;;;5.63;71.63;100034.97;4996836;28;45538;-73
2021/12/09 00:47:14;;;;;;;;;11.25;6.00;;;;;5.64;72.25;100041.06;5005155;28;45364;-73
2021/12/09 00:49:39;;;;;;;;;7.00;1.00;;;;;5.66;70.92;100044.53;5000579;28;45410;-73
2021/12/09 00:52:05;;;;;;;;;3.00;2.00;;;;;5.65;71.60;100032.31;4999771;28;45353;-74
2021/12/09 00:54:31;;;;;;;;;8.25;2.00;;;;;5.65;71.64;100048.91;5009164;28;46201;-73
2021/12/09 00:56:57;;;;;;;;;7.25;1.50;;;;;5.45;71.96;100011.81;5005300;28;45546;-74
2021/12/09 00:59:23;;;;;;;;;7.00;3.75;;;;;5.59;71.42;100053.44;4995660;28;45467;-74
2021/12/09 01:01:48;;;;;;;;;4.00;3.00;;;;;5.66;71.45;100053.25;5010112;28;45412;-74
2021/12/09 01:04:14;;;;;;;;;5.50;3.00;;;;;5.61;72.05;100046.41;5004833;28;45368;-74
2021/12/09 01:06:40;;;;;;;;;6.25;5.00;;;;;5.71;72.07;100068.91;5007918;28;46010;-74
2021/12/09 01:09:05;;;;;;;;;4.00;2.00;;;;;5.56;71.83;100049.16;4997550;28;45615;-74
2021/12/09 01:11:31;;;;;;;;;3.25;1.25;;;;;5.61;72.17;100062.16;4999823;28;45533;-74
2021/12/09 01:13:57;;;;;;;;;8.25;3.25;;;;;5.65;71.12;100075.16;5007503;28;45334;-74
2021/12/09 01:16:22;;;;;;;;;7.75;2.00;;;;;5.43;71.34;100042.47;5003873;28;47898;-74
2021/12/09 01:18:48;;;;;;;;;7.50;2.00;;;;;5.53;72.28;100056.22;5001139;28;45354;-74
2021/12/09 01:21:13;;;;;;;;;3.50;2.25;;;;;5.69;71.30;100078.56;5003513;28;45274;-74
2021/12/09 01:23:40;;;;;;;;;5.75;5.50;;;;;5.56;72.18;100082.38;5008678;28;45669;-74
2021/12/09 01:26:06;;;;;;;;;5.00;2.75;;;;;5.63;71.26;100097.97;5000727;28;47412;-74
2021/12/09 01:28:42;;;;;;;;;4.75;4.75;;;;;5.64;71.44;100099.69;4999253;28;45367;-74
2021/12/09 01:31:08;;;;;;;;;7.50;6.00;;;;;5.73;71.95;100119.59;5008270;28;45471;-74
2021/12/09 01:33:35;;;;;;;;;13.25;4.25;;;;;5.73;71.47;100118.75;5004890;28;45520;-74
2021/12/09 01:36:03;;;;;;;;;7.00;3.00;;;;;5.54;71.94;100100.81;5000830;28;45596;-74
2021/12/09 01:38:31;;;;;;;;;4.50;2.00;;;;;5.47;71.66;100100.09;5001322;28;45297;-74
2021/12/09 01:40:57;;;;;;;;;9.00;8.50;;;;;5.51;71.91;100121.03;5011315;28;45293;-74
2021/12/09 01:43:23;;;;;;;;;4.00;4.00;;;;;5.58;72.04;100127.84;5002531;28;45474;-74
2021/12/09 01:46:00;;;;;;;;;4.50;0.75;;;;;5.46;72.66;100119.34;4999535;28;46115;-74
2021/12/09 01:48:25;;;;;;;;;7.00;4.25;;;;;5.54;72.86;100134.94;5000770;28;45440;-73
2021/12/09 01:50:50;;;;;;;;;4.00;2.00;;;;;5.51;72.62;100131.53;4998646;28;45324;-74
2021/12/09 01:53:16;;;;;;;;;9.75;4.75;;;;;5.34;71.99;100100.41;5014759;28;45520;-74
2021/12/09 01:55:41;;;;;;;;;13.00;5.00;;;;;5.35;72.30;100089.88;5001406;28;45459;-74
2021/12/09 01:58:06;;;;;;;;;14.25;6.25;;;;;5.58;72.80;100119.97;4998699;28;45367;-74
2021/12/09 02:00:37;;;;;;;;;6.25;3.00;;;;;5.16;73.09;100054.47;5003062;28;45312;-74
2021/12/09 02:03:03;;;;;;;;;4.25;2.00;;;;;5.58;72.63;100125.22;5011693;28;45356;-74
2021/12/09 02:05:28;;;;;;;;;9.00;1.00;;;;;5.59;73.48;100119.06;4997015;28;45521;-74
2021/12/09 02:07:55;;;;;;;;;4.50;2.00;;;;;5.42;72.73;100094.09;4998879;28;45349;-73
2021/12/09 02:10:20;;;;;;;;;3.00;3.00;;;;;5.41;72.75;100100.25;5002194;28;47603;-74
2021/12/09 02:12:49;;;;;;;;;8.75;2.50;;;;;5.47;73.00;100107.97;5011174;28;45356;-73
2021/12/09 02:15:15;;;;;;;;;9.50;3.75;;;;;5.46;72.60;100100.97;5001076;28;45992;-73
2021/12/09 02:17:42;;;;;;;;;5.25;1.50;;;;;5.58;72.84;100119.97;5007060;28;45525;-73
2021/12/09 02:20:08;;;;;;;;;7.50;6.50;;;;;5.46;73.01;100100.97;5000967;28;45964;-73
2021/12/09 02:22:34;;;;;;;;;7.75;2.25;;;;;5.49;72.44;100104.44;5006740;28;45539;-74
2021/12/09 02:24:59;;;;;;;;;6.25;3.75;;;;;5.39;72.61;100099.41;5006953;28;45335;-73
2021/12/09 02:27:25;;;;;;;;;2.50;2.50;;;;;5.55;72.59;100122.66;5001408;28;45610;-73
2021/12/09 02:29:53;;;;;;;;;7.00;7.00;;;;;5.59;72.91;100130.44;5001185;28;45759;-73
2021/12/09 02:32:19;;;;;;;;;5.50;3.00;;;;;5.45;72.78;100109.75;5015426;28;45547;-73
2021/12/09 02:34:44;;;;;;;;;1.50;1.00;;;;;5.57;73.58;100134.00;4999117;28;46227;-73
2021/12/09 02:37:12;;;;;;;;;3.50;2.25;;;;;5.24;72.71;100089.28;5005693;28;45435;-73
2021/12/09 02:39:38;;;;;;;;;5.00;3.25;;;;;5.35;73.18;100102.13;5006688;28;45659;-73
2021/12/09 02:42:04;;;;;;;;;3.75;3.75;;;;;5.53;73.07;100132.34;5008826;28;45491;-74
2021/12/09 02:44:30;;;;;;;;;7.25;2.00;;;;;5.57;73.36;100128.75;5001807;28;45510;-73
2021/12/09 02:46:56;;;;;;;;;4.50;2.00;;;;;5.59;73.25;100125.19;5006223;28;49298;-72
2021/12/09 02:49:24;;;;;;;;;4.75;2.75;;;;;5.60;73.92;100126.06;5011009;28;45498;-73
2021/12/09 02:51:50;;;;;;;;;1.25;1.25;;;;;5.38;73.22;100084.56;5008285;28;45348;-74
2021/12/09 02:54:18;;;;;;;;;2.00;0.00;;;;;5.48;72.75;100098.34;4999551;28;45402;-74
2021/12/09 02:56:47;;;;;;;;;6.50;1.50;;;;;5.63;73.23;100124.22;5012957;28;45573;-73
2021/12/09 02:59:12;;;;;;;;;5.50;2.00;;;;;5.47;72.39;100096.59;5001190;28;45404;-73
2021/12/09 03:01:49;;;;;;;;;8.25;2.00;;;;;5.60;72.30;100119.03;5000183;28;45292;-73
2021/12/09 03:04:15;;;;;;;;;2.75;2.00;;;;;5.47;72.61;100100.09;5000399;28;46006;-73
2021/12/09 03:06:41;;;;;;;;;1.50;1.50;;;;;5.59;72.86;100116.44;5003454;28;45418;-73
2021/12/09 03:09:14;;;;;;;;;5.50;1.00;;;;;5.51;72.77;100110.53;5001846;28;45719;-73
2021/12/09 03:11:41;;;;;;;;;2.50;2.00;;;;;5.53;73.14;100121.81;4996966;28;45518;-73
2021/12/09 03:14:07;;;;;;;;;2.25;1.00;;;;;5.40;73.37;100106.38;5015705;28;48300;-73
2021/12/09 03:16:33;;;;;;;;;2.25;2.00;;;;;5.55;73.18;100120.03;5000801;28;45542;-74
2021/12/09 03:19:03;;;;;;;;;6.00;2.50;;;;;5.48;73.21;100111.47;4999772;28;45581;-73
2021/12/09 03:21:48;;;;;;;;;4.25;3.00;;;;;5.52;72.58;100113.09;4998237;28;45319;-73
2021/12/09 03:24:17;;;;;;;;;3.25;2.25;;;;;5.34;72.62;100093.41;5010208;28;45429;-73
2021/12/09 03:26:47;;;;;;;;;2.00;2.00;;;;;5.54;72.88;100123.56;4996038;28;45466;-74
2021/12/09 03:29:15;;;;;;;;;6.25;3.50;;;;;5.54;72.72;100128.81;5011660;28;45493;-73
2021/12/09 03:31:42;;;;;;;;;7.00;5.00;;;;;5.55;72.78;100120.91;5006218;28;45502;-73
2021/12/09 03:34:11;;;;;;;;;6.50;3.00;;;;;5.56;73.09;100121.75;5008221;28;45947;-73
2021/12/09 03:36:38;;;;;;;;;0.25;0.00;;;;;5.39;73.23;100093.31;5010434;28;45501;-73
2021/12/09 03:39:10;;;;;;;;;6.00;2.75;;;;;5.53;72.78;100127.09;4996526;28;45399;-73
2021/12/09 03:41:37;;;;;;;;;3.00;1.00;;;;;5.52;73.51;100141.13;5011719;28;46189;-73
2021/12/09 03:44:03;;;;;;;;;8.00;1.25;;;;;5.39;72.96;100120.41;5000001;28;46099;-73
2021/12/09 03:46:28;;;;;;;;;4.75;3.25;;;;;5.46;73.09;100137.72;5004379;28;45274;-73
2021/12/09 03:48:54;;;;;;;;;3.00;1.50;;;;;5.36;74.16;100112.59;5006169;28;45477;-73
2021/12/09 03:51:19;;;;;;;;;7.25;2.50;;;;;5.44;73.91;100128.16;5000680;28;45572;-73
2021/12/09 03:53:45;;;;;;;;;6.75;3.00;;;;;5.40;73.77;100127.38;5010051;28;47218;-73
2021/12/09 03:56:10;;;;;;;;;9.00;7.50;;;;;5.40;73.96;100129.13;5001037;28;45518;-73
2021/12/09 03:58:36;;;;;;;;;6.00;2.00;;;;;5.43;73.89;100137.78;5010484;28;45344;-73
2021/12/09 04:01:02;;;;;;;;;4.25;1.00;;;;;5.50;74.42;100140.28;5008364;28;45389;-73
2021/12/09 04:03:27;;;;;;;;;5.75;2.25;;;;;5.38;73.67;100121.31;5002565;28;46130;-73
2021/12/09 04:05:53;;;;;;;;;6.75;1.50;;;;;5.53;73.52;100143.72;5000517;28;45645;-72
2021/12/09 04:08:20;;;;;;;;;7.50;3.50;;;;;5.36;74.48;100120.47;4994611;28;45463;-73
2021/12/09 04:10:46;;;;;;;;;6.50;4.00;;;;;5.40;74.29;100119.50;5007635;28;45451;-73
2021/12/09 04:13:12;;;;;;;;;2.00;1.25;;;;;5.36;73.84;100122.25;4998279;28;46161;-73
2021/12/09 04:15:38;;;;;;;;;9.25;1.75;;;;;5.27;73.66;100098.84;4999826;28;45629;-74
2021/12/09 04:18:03;;;;;;;;;1.00;1.00;;;;;5.34;74.23;100110.91;4997260;28;45514;-74
2021/12/09 04:20:29;;;;;;;;;6.75;2.00;;;;;5.46;74.86;100142.13;5010129;28;45372;-74
2021/12/09 04:22:55;;;;;;;;;7.00;3.00;;;;;5.41;74.62;100137.00;5011259;28;45475;-73
2021/12/09 04:25:23;;;;;;;;;2.25;2.00;;;;;5.53;74.96;100145.44;4999606;28;45424;-73
2021/12/09 04:27:50;;;;;;;;;2.00;2.00;;;;;5.51;74.15;100145.50;5001023;28;45592;-73
2021/12/09 04:30:16;;;;;;;;;5.00;3.00;;;;;5.38;74.77;100126.56;4999724;28;53638;-73
2021/12/09 04:32:43;;;;;;;;;6.00;2.00;;;;;5.28;74.56;100113.66;5004370;28;45743;-73
2021/12/09 04:35:10;;;;;;;;;4.25;4.00;;;;;5.41;75.23;100149.22;5025729;28;45619;-73
2021/12/09 04:37:36;;;;;;;;;6.00;2.00;;;;;5.26;75.44;100126.81;5007762;28;45554;-74
2021/12/09 04:40:04;;;;;;;;;6.25;1.75;;;;;5.23;75.10;100119.00;5002925;28;45438;-73
2021/12/09 04:42:29;;;;;;;;;9.75;5.25;;;;;5.36;74.91;100138.84;5007013;28;46160;-73
2021/12/09 04:44:54;;;;;;;;;3.00;2.25;;;;;5.26;74.88;100126.81;4996130;28;45435;-73
2021/12/09 04:47:20;;;;;;;;;6.00;2.25;;;;;5.32;74.57;100141.56;4995555;28;45372;-73
2021/12/09 04:49:46;;;;;;;;;5.25;3.00;;;;;5.15;74.82;100113.09;5010117;28;45558;-73
2021/12/09 04:52:12;;;;;;;;;6.75;3.00;;;;;5.23;74.95;100132.13;5008019;28;46252;-73
2021/12/09 04:54:41;;;;;;;;;5.25;2.50;;;;;5.37;74.90;100156.31;5007727;28;45587;-74
2021/12/09 04:57:07;;;;;;;;;6.25;4.25;;;;;5.37;75.66;100158.94;4997474;28;45466;-74
2021/12/09 04:59:32;;;;;;;;;5.50;4.00;;;;;5.29;74.76;100139.84;4994965;28;45426;-75
2021/12/09 05:01:58;;;;;;;;;6.50;5.00;;;;;5.21;74.80;100126.94;5007941;28;46272;-74
2021/12/09 05:04:23;;;;;;;;;6.50;3.25;;;;;5.17;74.75;100127.00;5002642;28;45448;-74
2021/12/09 05:06:49;;;;;;;;;6.00;2.50;;;;;5.17;74.77;100125.25;5002114;28;45302;-73
2021/12/09 05:09:18;;;;;;;;;9.00;6.00;;;;;5.02;74.61;100101.97;5000866;28;45566;-73
2021/12/09 05:11:48;;;;;;;;;4.75;3.00;;;;;5.35;75.00;100160.72;4997708;28;45419;-74
2021/12/09 05:14:21;;;;;;;;;1.75;1.75;;;;;5.18;75.31;100136.63;4994094;28;45472;-74
2021/12/09 05:16:50;;;;;;;;;7.00;3.00;;;;;5.22;74.25;100149.63;5004040;28;45751;-73
2021/12/09 05:19:16;;;;;;;;;6.75;2.00;;;;;5.32;75.01;100168.66;4999463;28;45624;-73
2021/12/09 05:21:41;;;;;;;;;7.50;4.25;;;;;5.17;74.66;100142.75;5002593;28;45504;-74
2021/12/09 05:24:10;;;;;;;;;5.50;3.75;;;;;5.29;75.11;100163.47;4996262;28;45661;-74
2021/12/09 05:26:46;;;;;;;;;5.75;4.50;;;;;5.16;74.93;100146.28;4999660;28;45463;-73
2021/12/09 05:29:13;;;;;;;;;8.00;7.00;;;;;5.08;75.42;100138.56;5013022;28;45525;-74
2021/12/09 05:34:24;;;;;;;;;4.25;3.00;;;;;5.06;75.26;100126.38;4998107;28;45584;-74
2021/12/09 05:36:49;;;;;;;;;3.00;1.00;;;;;5.22;75.33;100159.28;5004756;28;45403;-73
2021/12/09 05:39:16;;;;;;;;;2.50;2.50;;;;;5.11;75.69;100132.41;5008536;28;45436;-74
2021/12/09 05:41:43;;;;;;;;;3.00;2.00;;;;;5.35;75.19;100178.22;5002889;28;46150;-73
2021/12/09 05:44:10;;;;;;;;;5.75;2.50;;;;;5.34;75.36;100184.38;5003381;28;45309;-74
2021/12/09 05:46:37;;;;;;;;;6.25;3.00;;;;;5.35;75.57;100184.31;5008231;28;45644;-74
2021/12/09 05:49:04;;;;;;;;;3.50;3.00;;;;;5.09;75.88;100136.81;5003496;28;45431;-73
2021/12/09 05:51:29;;;;;;;;;6.75;5.00;;;;;5.38;76.17;100186.03;4998318;28;46430;-74
2021/12/09 05:53:55;;;;;;;;;6.25;2.00;;;;;5.33;76.18;100172.16;4995365;28;45478;-73
2021/12/09 05:56:21;;;;;;;;;4.75;2.00;;;;;5.37;75.76;100171.19;4996668;28;45553;-73
2021/12/09 05:58:47;;;;;;;;;2.00;2.00;;;;;5.40;76.38;100184.25;5005156;28;45497;-74
2021/12/09 06:01:13;;;;;;;;;4.50;2.00;;;;;5.21;75.49;100157.56;5009955;28;45501;-73
2021/12/09 06:03:39;;;;;;;;;10.75;5.75;;;;;5.31;76.30;100174.81;5013505;28;45657;-73
2021/12/09 06:06:04;;;;;;;;;7.00;4.00;;;;;5.39;75.49;100180.75;5006464;28;45475;-73
2021/12/09 06:08:30;;;;;;;;;5.75;3.25;;;;;5.39;75.82;100179.91;5014773;28;45448;-75
2021/12/09 06:10:55;;;;;;;;;7.25;5.25;;;;;5.26;75.94;100171.41;5001270;28;45273;-75
2021/12/09 06:13:25;;;;;;;;;6.75;4.25;;;;;5.21;76.44;100157.56;5001171;28;45483;-75
2021/12/09 06:15:50;;;;;;;;;3.50;2.75;;;;;5.32;77.02;100179.16;5003054;28;45419;-76
2021/12/09 06:18:16;;;;;;;;;6.75;3.50;;;;;5.30;76.15;100174.84;5009020;28;45691;-75
2021/12/09 06:20:41;;;;;;;;;3.25;2.00;;;;;5.26;77.05;100160.91;5011699;28;45403;-75
2021/12/09 06:23:06;;;;;;;;;3.25;3.25;;;;;5.36;76.68;100178.22;5012495;28;45491;-75
2021/12/09 06:25:32;;;;;;;;;7.75;6.00;;;;;5.28;76.57;100168.78;5008703;28;45673;-74
2021/12/09 06:27:57;;;;;;;;;8.50;3.00;;;;;5.44;77.15;100189.41;5007317;28;45599;-74
2021/12/09 06:30:25;;;;;;;;;6.50;6.00;;;;;5.46;76.55;100195.47;5001158;28;46063;-74
2021/12/09 06:32:51;;;;;;;;;7.75;4.50;;;;;5.47;77.13;100191.97;5016338;28;45595;-74
2021/12/09 06:35:17;;;;;;;;;7.75;5.75;;;;;5.46;76.57;100192.84;5015760;28;45506;-74
2021/12/09 06:37:45;;;;;;;;;7.75;6.25;;;;;5.20;76.53;100150.56;5000481;28;45705;-74
2021/12/09 06:40:14;;;;;;;;;10.00;6.25;;;;;5.42;76.68;100187.72;5011999;28;46309;-74
2021/12/09 06:42:42;;;;;;;;;7.50;4.25;;;;;5.38;77.53;100191.28;5015691;28;45789;-75
2021/12/09 06:45:09;;;;;;;;;11.50;8.25;;;;;5.36;77.55;100186.06;5014710;28;45498;-75
2021/12/09 06:47:34;;;;;;;;;6.75;6.00;;;;;5.19;77.16;100161.97;5015798;28;45371;-75
2021/12/09 06:49:59;;;;;;;;;8.50;6.75;;;;;5.33;76.54;100183.53;5016456;28;45594;-75
2021/12/09 06:52:25;;;;;;;;;10.00;7.00;;;;;5.35;77.26;100192.19;5016157;28;45426;-74
2021/12/09 06:54:50;;;;;;;;;11.25;5.25;;;;;5.33;77.11;100194.03;5015604;28;45624;-74
2021/12/09 06:57:16;;;;;;;;;8.50;3.25;;;;;5.24;77.12;100196.84;5026674;28;45695;-75
2021/12/09 06:59:41;;;;;;;;;8.50;6.50;;;;;5.10;77.90;100160.41;5014516;28;48180;-76
2021/12/09 07:02:08;;;;;;;;;11.00;5.75;;;;;5.27;78.11;100194.16;5016614;28;45363;-74
2021/12/09 07:04:33;;;;;;;;;7.00;4.00;;;;;5.24;77.61;100181.09;5006915;28;45348;-75
2021/12/09 07:06:59;;;;;;;;;0.25;0.25;;;;;5.31;77.06;100189.69;5003188;28;45421;-74
2021/12/09 07:09:28;;;;;;;;;6.25;5.75;;;;;5.31;77.63;100190.56;5015520;28;45353;-74
2021/12/09 07:11:54;;;;;;;;;6.75;3.25;;;;;5.39;77.09;100193.03;5015660;28;45389;-74
2021/12/09 07:14:19;;;;;;;;;9.25;6.00;;;;;5.23;77.60;100163.59;5011841;28;45482;-74
2021/12/09 07:16:45;;;;;;;;;9.50;7.00;;;;;5.25;77.50;100159.19;5017317;28;45344;-74
2021/12/09 07:19:10;;;;;;;;;7.25;6.00;;;;;5.46;77.15;100200.72;5010995;28;45493;-74
2021/12/09 07:21:35;;;;;;;;;8.00;7.75;;;;;5.49;77.56;100199.78;5015624;28;45324;-74
2021/12/09 07:24:01;;;;;;;;;11.00;8.25;;;;;5.46;77.31;100184.97;5015663;28;45640;-74
2021/12/09 07:26:28;;;;;;;;;6.25;4.00;;;;;5.48;77.69;100187.56;5011941;28;45602;-74
2021/12/09 07:28:54;;;;;;;;;3.75;3.50;;;;;5.34;76.79;100153.75;5014446;28;46973;-74
2021/12/09 07:31:19;;;;;;;;;7.75;6.75;;;;;5.47;77.29;100176.22;5013987;28;45419;-74
2021/12/09 07:33:44;;;;;;;;;8.25;6.00;;;;;5.43;76.66;100164.03;5015766;28;45577;-74
2021/12/09 07:36:10;;;;;;;;;11.75;5.25;;;;;5.43;76.82;100156.16;5015700;28;45426;-74
2021/12/09 07:38:36;;;;;;;;;11.00;4.25;;;;;5.57;76.37;100187.34;5015114;28;45375;-73
2021/12/09 07:41:01;;;;;;;;;6.50;6.50;;;;;5.61;76.87;100204.75;5015573;28;45382;-73
2021/12/09 07:43:27;;;;;;;;;4.75;4.75;;;;;5.45;76.61;100180.63;5020409;28;45482;-73
2021/12/09 07:45:52;;;;;;;;;8.75;5.50;;;;;5.62;77.12;100208.28;5015044;28;45380;-73
2021/12/09 07:48:18;;;;;;;;;6.00;6.00;;;;;5.57;76.56;100207.50;5026026;28;46008;-73
2021/12/09 07:50:43;;;;;;;;;9.25;6.50;;;;;5.39;76.82;100178.13;5015059;28;45411;-73
2021/12/09 07:53:08;;;;;;;;;5.00;4.25;;;;;5.47;76.93;100191.97;5018356;28;45360;-74
2021/12/09 07:55:34;;;;;;;;;4.50;4.25;;;;;5.59;76.99;100213.56;5025672;28;45352;-73
2021/12/09 07:58:00;;;;;;;;;8.00;6.00;;;;;5.58;76.28;100223.19;5035636;28;45616;-73
2021/12/09 08:00:31;;;;;;;;;8.50;4.25;;;;;5.57;76.71;100213.59;5026462;28;45367;-74
2021/12/09 08:02:58;;;;;;;;;8.50;4.00;;;;;5.62;76.68;100216.16;5018949;28;45580;-74
2021/12/09 08:05:27;;;;;;;;;7.75;5.75;;;;;5.52;76.70;100198.84;5015191;28;45325;-74
2021/12/09 08:07:53;;;;;;;;;4.25;4.00;;;;;5.66;77.45;100233.53;5015094;28;46686;-74
2021/12/09 08:10:19;;;;;;;;;4.25;4.25;;;;;5.66;76.38;100220.41;5014944;28;45511;-74
2021/12/09 08:12:46;;;;;;;;;8.00;7.00;;;;;5.58;76.99;100212.69;5006150;28;45413;-74
2021/12/09 08:15:13;;;;;;;;;16.00;7.50;;;;;5.67;77.03;100237.88;5002091;28;45373;-72
2021/12/09 08:20:11;;;;;;;;;11.25;7.00;;;;;5.70;76.99;100235.19;5015029;28;45456;-72
2021/12/09 08:22:37;;;;;;;;;8.00;3.00;;;;;5.72;76.92;100243.91;5014381;28;45644;-72
2021/12/09 08:25:03;;;;;;;;;7.25;4.25;;;;;5.62;76.32;100240.63;5014369;28;45404;-72
2021/12/09 08:27:29;;;;;;;;;5.00;5.00;;;;;5.61;77.33;100249.38;5013350;28;47477;-72
2021/12/09 08:29:54;;;;;;;;;6.50;6.00;;;;;5.52;76.81;100222.47;5012760;28;45573;-71
2021/12/09 08:32:20;;;;;;;;;8.00;7.25;;;;;5.67;76.92;100251.00;5015202;28;45367;-75
2021/12/09 08:34:45;;;;;;;;;9.00;7.25;;;;;5.54;76.75;100229.44;5014952;28;45462;-73
2021/12/09 08:37:11;;;;;;;;;11.00;7.50;;;;;5.64;77.05;100241.44;5013588;28;45586;-73
2021/12/09 08:39:37;;;;;;;;;7.50;5.00;;;;;5.59;76.38;100239.81;5013219;28;45405;-72
2021/12/09 08:42:03;;;;;;;;;13.50;7.00;;;;;5.76;76.51;100255.19;5014470;28;45482;-73
2021/12/09 08:44:28;;;;;;;;;6.50;3.75;;;;;5.36;77.34;100183.44;5014279;28;45399;-72
2021/12/09 08:46:54;;;;;;;;;7.50;6.00;;;;;5.75;77.08;100245.59;5014594;28;45465;-73
2021/12/09 08:49:19;;;;;;;;;7.50;6.75;;;;;5.70;77.27;100224.69;5012582;28;45453;-73
2021/12/09 08:51:45;;;;;;;;;6.25;5.75;;;;;5.76;76.55;100240.31;5013747;28;45821;-74
2021/12/09 08:54:10;;;;;;;;;9.25;6.25;;;;;5.83;76.83;100247.16;5013758;28;45391;-73
2021/12/09 08:56:37;;;;;;;;;4.75;4.25;;;;;5.85;76.48;100236.59;5014019;28;46005;-73
2021/12/09 08:59:06;;;;;;;;;6.50;5.25;;;;;5.79;76.68;100234.13;5014554;28;45324;-73
2021/12/09 09:01:36;;;;;;;;;7.00;4.50;;;;;5.87;76.43;100250.56;5012833;28;45624;-74
2021/12/09 09:04:04;;;;;;;;;10.25;8.00;;;;;5.65;76.83;100216.94;5012826;28;45642;-73
2021/12/09 09:06:31;;;;;;;;;8.00;4.25;;;;;5.98;76.86;100264.38;5010329;28;48278;-72
2021/12/09 09:08:58;;;;;;;;;8.50;7.00;;;;;6.02;76.69;100259.91;5013834;28;45346;-72
2021/12/09 09:11:25;;;;;;;;;9.75;8.00;;;;;6.02;75.92;100263.38;5014933;28;45301;-72
2021/12/09 09:13:50;;;;;;;;;9.00;6.50;;;;;6.02;76.31;100267.78;5014331;28;45528;-72
2021/12/09 09:16:16;;;;;;;;;11.25;6.25;;;;;6.00;76.42;100259.06;5013689;28;45306;-72
2021/12/09 09:18:42;;;;;;;;;10.00;6.75;;;;;6.03;76.74;100264.25;5012888;28;45401;-72
2021/12/09 09:21:07;;;;;;;;;13.00;8.00;;;;;6.06;76.62;100265.06;5013685;28;45458;-72
2021/12/09 09:23:33;;;;;;;;;12.50;8.50;;;;;6.11;76.52;100273.66;5013871;28;45343;-72
2021/12/09 09:25:59;;;;;;;;;14.50;7.50;;;;;6.12;76.61;100277.19;5014205;28;45443;-72
2021/12/09 09:28:25;;;;;;;;;9.75;7.75;;;;;6.04;76.08;100271.25;5013424;28;45417;-72
2021/12/09 09:30:56;;;;;;;;;13.25;8.00;;;;;6.03;76.19;100265.13;5016297;28;45454;-72
2021/12/09 09:33:25;;;;;;;;;12.75;6.25;;;;;5.91;76.15;100255.75;5017275;28;45593;-72
2021/12/09 09:35:51;;;;;;;;;9.00;6.25;;;;;6.00;76.23;100280.06;5016597;28;45464;-72
2021/12/09 09:38:18;;;;;;;;;7.25;7.00;;;;;6.00;76.68;100274.81;5018199;28;45474;-72
2021/12/09 09:40:59;;;;;;;;;6.50;6.00;;;;;5.84;76.80;100259.38;5017413;28;45541;-72
2021/12/09 09:43:32;;;;;;;;;6.50;6.25;;;;;6.02;76.35;100288.78;5016985;28;45377;-73
2021/12/09 09:46:03;;;;;;;;;11.50;7.75;;;;;5.83;76.48;100255.03;5015498;28;47889;-72
2021/12/09 09:48:29;;;;;;;;;7.50;4.00;;;;;6.02;76.45;100294.03;5016849;28;45604;-72
2021/12/09 09:50:56;;;;;;;;;9.00;7.50;;;;;6.03;76.98;100285.25;5015781;28;45338;-72
2021/12/09 09:53:22;;;;;;;;;6.75;4.00;;;;;6.09;76.69;100288.63;5017210;28;45483;-72
2021/12/09 09:55:47;;;;;;;;;4.50;1.75;;;;;6.10;76.56;100292.13;5016925;28;46087;-72
2021/12/09 09:58:15;;;;;;;;;6.00;5.50;;;;;6.22;77.67;100307.59;5016494;28;45675;-72
2021/12/09 10:00:40;;;;;;;;;12.75;7.00;;;;;6.27;77.57;100305.72;5015733;28;45408;-72
2021/12/09 10:03:10;;;;;;;;;11.25;7.25;;;;;6.14;77.11;100283.25;5016838;28;45498;-72
2021/12/09 10:05:38;;;;;;;;;4.50;4.00;;;;;6.33;77.08;100309.97;5016230;28;46648;-73
2021/12/09 10:08:04;;;;;;;;;7.75;5.00;;;;;6.32;77.43;100317.00;5017475;28;46064;-73
2021/12/09 10:10:30;;;;;;;;;7.75;6.25;;;;;6.27;77.92;100300.47;5015854;28;45387;-73
2021/12/09 10:13:18;;;;;;;;;10.75;8.00;;;;;6.17;77.62;100272.66;5016496;28;45453;-73
2021/12/09 10:15:48;;;;;;;;;9.25;6.00;;;;;6.43;77.24;100308.00;5016717;28;46050;-73
2021/12/09 10:18:31;;;;;;;;;23.00;7.75;;;;;6.46;77.63;100305.28;5016500;28;45411;-73
2021/12/09 10:20:57;;;;;;;;;7.50;6.50;;;;;6.43;77.61;100305.34;5002264;28;45357;-72
2021/12/09 10:23:29;;;;;;;;;10.50;7.00;;;;;6.51;78.12;100309.53;5016799;28;45273;-72
2021/12/09 10:26:15;;;;;;;;;12.50;7.00;;;;;6.43;76.81;100294.84;5016415;28;46065;-72
2021/12/09 10:28:45;;;;;;;;;7.00;7.00;;;;;6.52;78.04;100313.88;5016303;28;45589;-73
2021/12/09 10:31:15;;;;;;;;;17.50;11.00;;;;;6.52;77.58;100306.00;5016257;28;45559;-73
2021/12/09 10:34:06;;;;;;;;;11.75;7.75;;;;;6.61;78.19;100307.53;5015918;28;45592;-73
2021/12/09 10:36:52;;;;;;;;;10.75;7.50;;;;;6.66;78.31;100307.44;5027124;28;46229;-73
2021/12/09 10:39:20;;;;;;;;;7.00;6.00;;;;;6.69;77.23;100302.94;5016328;28;45437;-73
2021/12/09 10:41:46;;;;;;;;;12.50;9.00;;;;;6.72;77.29;100302.88;5000245;28;45364;-73
2021/12/09 10:44:12;;;;;;;;;12.75;7.00;;;;;6.75;78.04;100299.31;5016707;28;45430;-73
2021/12/09 10:46:54;;;;;;;;;14.25;8.00;;;;;6.76;78.10;100299.25;5015073;28;45381;-72
2021/12/09 10:49:20;;;;;;;;;10.75;6.50;;;;;6.80;77.37;100298.28;5015511;28;45418;-73
2021/12/09 10:51:58;;;;;;;;;8.75;7.00;;;;;6.74;78.06;100269.50;5015707;28;45548;-73
2021/12/09 10:54:35;;;;;;;;;14.25;9.25;;;;;6.91;77.66;100286.59;5026758;28;45535;-73
2021/12/09 10:57:27;;;;;;;;;12.00;8.25;;;;;6.94;77.79;100273.38;5011020;28;45498;-73
2021/12/09 10:59:52;;;;;;;;;13.25;11.00;;;;;6.84;76.87;100243.81;5014624;28;45723;-73
2021/12/09 11:02:18;;;;;;;;;11.25;8.00;;;;;6.94;77.54;100253.22;5014872;28;45519;-73
2021/12/09 11:05:03;;;;;;;;;9.75;7.75;;;;;6.94;77.87;100236.53;5016181;28;45498;-73
2021/12/09 11:07:31;;;;;;;;;11.00;6.25;;;;;7.10;78.12;100244.91;5015734;28;46364;-73
2021/12/09 11:10:17;;;;;;;;;14.75;7.75;;;;;7.23;77.74;100247.13;5015342;28;45525;-73
2021/12/09 11:12:52;;;;;;;;;8.00;5.50;;;;;7.32;77.18;100253.88;5014236;28;45484;-73
2021/12/09 11:15:19;;;;;;;;;9.00;5.25;;;;;7.34;77.05;100232.81;5015425;28;45557;-71
2021/12/09 11:17:48;;;;;;;;;13.00;4.75;;;;;7.31;76.47;100207.44;5013877;28;47207;-73
2021/12/09 11:20:14;;;;;;;;;5.25;3.50;;;;;7.57;76.97;100238.25;4996255;28;45429;-73
2021/12/09 11:22:43;;;;;;;;;8.25;7.50;;;;;7.77;76.37;100237.66;5015163;28;45334;-73
2021/12/09 11:25:33;;;;;;;;;10.25;8.00;;;;;7.87;76.25;100232.97;5014979;28;45611;-73
2021/12/09 11:28:12;;;;;;;;;6.75;4.50;;;;;7.83;74.97;100195.31;5024203;28;47514;-73
2021/12/09 11:31:05;;;;;;;;;13.25;6.50;;;;;8.17;75.47;100231.97;5015728;28;45486;-73
2021/12/09 11:33:33;;;;;;;;;7.25;5.50;;;;;8.28;74.67;100231.63;5015307;28;45398;-73
2021/12/09 11:36:01;;;;;;;;;10.25;4.75;;;;;8.29;74.40;100216.66;5011514;28;45686;-74
2021/12/09 11:38:53;;;;;;;;;7.75;6.00;;;;;8.33;74.41;100216.53;5005172;28;45750;-73